Time,TemperatureF,DewpointF,PressureIn,WindDirection,WindDirectionDegrees,WindSpeedMPH,WindSpeedGustMPH,Humidity,HourlyPrecipIn,Conditions,Clouds,dailyrainin,SolarRadiationWatts/m^2,SoftwareType,DateUTC
2013-08-24 00:04:00,65.0,64.0,-100.00,ESE,121,3.0,8.0,95,0.00,,,0.01,0.000000,,2013-08-24 04:04:00,
2013-08-24 00:44:00,64.0,62.0,-100.00,SSE,159,3.0,7.0,93,0.00,,,0.01,0.000000,,2013-08-24 04:44:00,
2013-08-24 00:54:00,64.0,62.0,-100.00,SSE,159,3.0,7.0,93,0.00,,,0.01,0.000000,,2013-08-24 04:54:00,
2013-08-24 01:03:00,64.0,62.0,-100.00,SSE,159,3.0,7.0,93,0.00,,,0.01,0.000000,,2013-08-24 05:03:00,
2013-08-24 01:43:00,63.0,59.0,-100.00,NNE,24,2.0,4.0,86,0.00,,,0.01,0.000000,,2013-08-24 05:43:00,
2013-08-24 01:53:00,63.0,59.0,-100.00,NNE,24,2.0,4.0,86,0.00,,,0.01,0.000000,,2013-08-24 05:53:00,
2013-08-24 02:02:00,63.0,59.0,-100.00,NNE,24,2.0,4.0,86,0.00,,,0.01,0.000000,,2013-08-24 06:02:00,
2013-08-24 02:42:00,63.0,61.0,-100.00,East,99,2.0,4.0,94,0.00,,,0.01,0.000000,,2013-08-24 06:42:00,
2013-08-24 02:52:00,63.0,61.0,-100.00,East,99,2.0,4.0,94,0.00,,,0.01,0.000000,,2013-08-24 06:52:00,
2013-08-24 03:02:00,63.0,61.0,-100.00,East,99,2.0,4.0,94,0.00,,,0.01,0.000000,,2013-08-24 07:02:00,
2013-08-24 03:43:00,65.0,61.0,-100.00,North,8,2.0,4.0,88,0.00,,,0.01,0.000000,,2013-08-24 07:43:00,
2013-08-24 03:53:00,65.0,61.0,-100.00,North,8,2.0,4.0,88,0.00,,,0.01,0.000000,,2013-08-24 07:53:00,
2013-08-24 04:02:00,65.0,61.0,-100.00,North,8,2.0,4.0,88,0.00,,,0.01,0.000000,,2013-08-24 08:02:00,
2013-08-24 04:42:00,67.0,59.0,-100.00,North,3,3.0,12.0,75,0.00,,,0.01,0.000000,,2013-08-24 08:42:00,
2013-08-24 04:52:00,67.0,59.0,-100.00,North,3,3.0,12.0,75,0.00,,,0.01,0.000000,,2013-08-24 08:52:00,
2013-08-24 05:01:00,67.0,59.0,-100.00,North,3,3.0,12.0,75,0.00,,,0.01,0.000000,,2013-08-24 09:01:00,
2013-08-24 05:44:00,66.0,61.0,-100.00,SSW,207,2.0,7.0,83,0.00,,,0.01,0.000000,,2013-08-24 09:44:00,
2013-08-24 05:53:00,66.0,61.0,-100.00,SSW,207,2.0,7.0,83,0.00,,,0.01,0.000000,,2013-08-24 09:53:00,
2013-08-24 06:04:00,66.0,61.0,-100.00,SSW,207,2.0,7.0,83,0.00,,,0.01,0.000000,,2013-08-24 10:04:00,
2013-08-24 06:42:00,65.0,60.0,-100.00,WNW,297,3.0,9.0,84,0.00,,,0.01,0.000000,,2013-08-24 10:42:00,
2013-08-24 06:53:00,65.0,60.0,-100.00,WNW,297,3.0,9.0,84,0.00,,,0.01,0.000000,,2013-08-24 10:53:00,
2013-08-24 07:02:00,65.0,60.0,-100.00,WNW,297,3.0,9.0,84,0.00,,,0.01,0.000000,,2013-08-24 11:02:00,
2013-08-24 07:42:00,63.0,62.0,-100.00,WSW,250,3.0,9.0,95,0.00,,,0.00,1.000000,,2013-08-24 11:42:00,
2013-08-24 07:52:00,63.0,62.0,-100.00,WSW,250,3.0,9.0,95,0.00,,,0.00,1.000000,,2013-08-24 11:52:00,
2013-08-24 08:02:00,63.0,62.0,-100.00,WSW,250,3.0,9.0,95,0.00,,,0.00,1.000000,,2013-08-24 12:02:00,
2013-08-24 08:42:00,64.0,62.0,-100.00,ESE,110,6.0,13.0,93,0.00,,,0.00,31.000000,,2013-08-24 12:42:00,
2013-08-24 08:52:00,64.0,62.0,-100.00,ESE,110,6.0,13.0,93,0.00,,,0.00,31.000000,,2013-08-24 12:52:00,
2013-08-24 09:02:00,64.0,62.0,-100.00,ESE,110,6.0,13.0,93,0.00,,,0.00,31.000000,,2013-08-24 13:02:00,
2013-08-24 09:42:00,67.0,63.0,-100.00,ENE,74,4.0,21.0,87,0.00,,,0.00,201.000000,,2013-08-24 13:42:00,
2013-08-24 09:52:00,67.0,63.0,-100.00,ENE,74,4.0,21.0,87,0.00,,,0.00,201.000000,,2013-08-24 13:52:00,
2013-08-24 10:02:00,67.0,63.0,-100.00,ENE,74,4.0,21.0,87,0.00,,,0.00,201.000000,,2013-08-24 14:02:00,
2013-08-24 10:42:00,70.0,64.0,-100.00,West,279,3.0,9.0,82,0.00,,,0.00,489.000000,,2013-08-24 14:42:00,
2013-08-24 10:52:00,70.0,64.0,-100.00,West,279,3.0,9.0,82,0.00,,,0.00,489.000000,,2013-08-24 14:52:00,
2013-08-24 11:01:00,70.0,64.0,-100.00,West,279,3.0,9.0,82,0.00,,,0.00,489.000000,,2013-08-24 15:01:00,
2013-08-24 11:45:00,71.0,64.0,-100.00,NNW,333,2.0,7.0,78,0.00,,,0.00,614.000000,,2013-08-24 15:45:00,
2013-08-24 11:54:00,71.0,64.0,-100.00,NNW,333,2.0,7.0,78,0.00,,,0.00,614.000000,,2013-08-24 15:54:00,
2013-08-24 12:04:00,71.0,64.0,-100.00,NNW,333,2.0,7.0,78,0.00,,,0.00,614.000000,,2013-08-24 16:04:00,
2013-08-24 12:42:00,71.0,64.0,-100.00,SSE,159,4.0,7.0,79,0.00,,,0.00,411.000000,,2013-08-24 16:42:00,
2013-08-24 12:53:00,71.0,64.0,-100.00,SSE,159,4.0,7.0,79,0.00,,,0.00,411.000000,,2013-08-24 16:53:00,
2013-08-24 13:02:00,71.0,64.0,-100.00,SSE,159,4.0,7.0,79,0.00,,,0.00,411.000000,,2013-08-24 17:02:00,
2013-08-24 13:42:00,71.0,62.0,-100.00,SE,144,6.0,11.0,74,0.00,,,0.00,780.000000,,2013-08-24 17:42:00,
2013-08-24 13:52:00,71.0,62.0,-100.00,SE,144,6.0,11.0,74,0.00,,,0.00,780.000000,,2013-08-24 17:52:00,
2013-08-24 14:03:00,71.0,62.0,-100.00,SE,144,6.0,11.0,74,0.00,,,0.00,780.000000,,2013-08-24 18:03:00,
2013-08-24 14:42:00,72.0,65.0,-100.00,South,172,5.0,9.0,79,0.00,,,0.00,685.000000,,2013-08-24 18:42:00,
2013-08-24 14:53:00,72.0,65.0,-100.00,South,172,5.0,9.0,79,0.00,,,0.00,685.000000,,2013-08-24 18:53:00,
2013-08-24 15:01:00,72.0,65.0,-100.00,South,172,5.0,9.0,79,0.00,,,0.00,685.000000,,2013-08-24 19:01:00,
2013-08-24 15:42:00,74.0,67.0,-100.00,SSE,153,4.0,9.0,78,0.00,,,0.00,814.000000,,2013-08-24 19:42:00,
2013-08-24 15:52:00,74.0,67.0,-100.00,SSE,153,4.0,9.0,78,0.00,,,0.00,814.000000,,2013-08-24 19:52:00,
2013-08-24 16:02:00,74.0,67.0,-100.00,SSE,153,4.0,9.0,78,0.00,,,0.00,814.000000,,2013-08-24 20:02:00,
2013-08-24 16:42:00,73.0,66.0,-100.00,SSE,156,4.0,10.0,79,0.00,,,0.00,833.000000,,2013-08-24 20:42:00,
2013-08-24 16:53:00,73.0,66.0,-100.00,SSE,156,4.0,10.0,79,0.00,,,0.00,833.000000,,2013-08-24 20:53:00,
2013-08-24 17:02:00,73.0,66.0,-100.00,SSE,156,4.0,10.0,79,0.00,,,0.00,833.000000,,2013-08-24 21:02:00,
2013-08-24 17:43:00,73.0,65.0,-100.00,SSE,156,5.0,13.0,76,0.00,,,0.00,829.000000,,2013-08-24 21:43:00,
2013-08-24 17:55:00,73.0,65.0,-100.00,SSE,156,5.0,13.0,76,0.00,,,0.00,829.000000,,2013-08-24 21:55:00,
2013-08-24 18:04:00,73.0,65.0,-100.00,SSE,156,5.0,13.0,76,0.00,,,0.00,829.000000,,2013-08-24 22:04:00,
2013-08-24 18:43:00,68.0,61.0,-100.00,SSE,156,4.0,14.0,78,0.00,,,0.00,349.000000,,2013-08-24 22:43:00,
2013-08-24 18:53:00,68.0,61.0,-100.00,SSE,156,4.0,14.0,78,0.00,,,0.00,349.000000,,2013-08-24 22:53:00,
2013-08-24 19:03:00,68.0,61.0,-100.00,SSE,156,4.0,14.0,78,0.00,,,0.00,349.000000,,2013-08-24 23:03:00,
2013-08-24 19:43:00,66.0,61.0,-100.00,SSW,195,4.0,10.0,84,0.00,,,0.00,82.000000,,2013-08-24 23:43:00,
2013-08-24 19:53:00,66.0,61.0,-100.00,SSW,195,4.0,10.0,84,0.00,,,0.00,82.000000,,2013-08-24 23:53:00,
2013-08-24 20:02:00,66.0,61.0,-100.00,SSW,195,4.0,10.0,84,0.00,,,0.00,82.000000,,2013-08-25 00:02:00,
2013-08-24 20:42:00,65.0,62.0,-100.00,South,187,5.0,10.0,89,0.00,,,0.00,25.000000,,2013-08-25 00:42:00,
2013-08-24 20:52:00,65.0,62.0,-100.00,South,187,5.0,10.0,89,0.00,,,0.00,25.000000,,2013-08-25 00:52:00,
2013-08-24 21:01:00,65.0,62.0,-100.00,South,187,5.0,10.0,89,0.00,,,0.00,25.000000,,2013-08-25 01:01:00,
2013-08-24 21:43:00,64.0,59.0,-100.00,West,277,4.0,10.0,84,0.00,,,0.00,1.000000,,2013-08-25 01:43:00,
2013-08-24 21:52:00,64.0,59.0,-100.00,West,277,4.0,10.0,84,0.00,,,0.00,1.000000,,2013-08-25 01:52:00,
2013-08-24 22:02:00,64.0,59.0,-100.00,West,277,4.0,10.0,84,0.00,,,0.00,1.000000,,2013-08-25 02:02:00,
2013-08-24 22:42:00,64.0,58.0,-100.00,WNW,292,4.0,13.0,80,0.00,,,0.00,0.000000,,2013-08-25 02:42:00,
2013-08-24 22:52:00,64.0,58.0,-100.00,WNW,292,4.0,13.0,80,0.00,,,0.00,0.000000,,2013-08-25 02:52:00,
2013-08-24 23:02:00,64.0,58.0,-100.00,WNW,292,4.0,13.0,80,0.00,,,0.00,0.000000,,2013-08-25 03:02:00,
2013-08-24 23:44:00,63.0,57.0,-100.00,WNW,284,5.0,11.0,81,0.00,,,0.00,0.000000,,2013-08-25 03:44:00,
2013-08-24 23:54:00,63.0,57.0,-100.00,WNW,284,5.0,11.0,81,0.00,,,0.00,0.000000,,2013-08-25 03:54:00,